Latest Coastal Weather Observations for Wynyard

IDV60701

Issued at 10:02 pm EST Monday 21 August 2017 (issued every 10 minutes, with the page automatically refreshed every 10 minutes)

About coastal observations | Map of coastal stations | Coastal observations for VIC | Marine services | Other Formats
Station Details ID: 091107 Name: WYNYARD AIRPORT Lat: -41.00 Lon: 145.73 Height: 12.0 m
Data from the previous 72 hours. | See also: Recent months at Wynyard
Date/Time
EST
Temp
°C
Wind Pressure Rain since
9am
mm
Weather Cloud Vis
km
Sea
Height
m
Swell
Dir  Spd
kts
Gust
kts
hPa Trend Height
m
Period
s
Dir
21/10:00pm 5.8 S 4 4 1015.9 - 1.8 - Partly cloudy 5 - - - -
21/09:30pm 6.3 CALM 0 1 1016.1 - 1.8 - Partly cloudy 8 - - - -
21/09:00pm 6.2 CALM 0 2 1015.9 - 1.8 Recent precip. Partly cloudy 7 - - - -
21/08:47pm 6.3 S 3 4 1015.9 - 1.8 - Partly cloudy 5 - - - -
21/08:30pm 7.3 S 5 7 1015.8 - 1.8 - Partly cloudy 10 - - - -
21/08:00pm 7.7 ESE 2 5 1015.6 - 1.6 - Partly cloudy 10 - - - -
21/07:57pm 7.7 E 3 4 1015.6 - 1.6 - Partly cloudy 10 - - - -
21/07:41pm 7.9 N 5 7 1015.7 - 1.4 - Partly cloudy 5 - - - -
21/07:30pm 8.0 NW 3 4 1015.7 - 1.0 - Partly cloudy 10 - - - -
21/07:00pm 7.6 S 3 3 1015.3 - 1.0 - Partly cloudy 10 - - - -
21/06:30pm 8.0 S 5 6 1014.9 - 1.0 - Cloudy 10 - - - -
21/06:00pm 8.4 CALM 0 0 1014.6 - 1.0 - Mostly cloudy 10 - - - -
21/05:30pm 8.8 CALM 0 0 1014.3 - 1.0 - Partly cloudy 10 - - - -
21/05:00pm 10.1 E 3 4 1014.1 - 1.0 - - 10 - - - -
21/04:30pm 9.6 CALM 0 3 1014.2 - 1.0 - Partly cloudy 10 - - - -
21/04:00pm 9.6 ESE 4 5 1014.3 - 1.0 - Partly cloudy 10 - - - -
21/03:30pm 9.2 ESE 4 5 1014.2 - 1.0 - Partly cloudy 10 - - - -
21/03:00pm 8.5 ESE 5 7 1014.4 - 1.0 Rain Cloudy 10 - - - -
21/02:49pm 8.5 ESE 7 9 1014.4 - 0.8 - Partly cloudy 10 - - - -
21/02:33pm 9.0 NE 8 11 1014.7 - 0.4 - Partly cloudy 5 - - - -
21/02:30pm 9.0 NE 8 11 1014.7 - 0.2 - Partly cloudy 7 - - - -
21/02:00pm 10.1 ENE 7 9 1014.6 - 0.2 - Partly cloudy 10 - - - -
21/01:30pm 10.7 E 7 10 1014.7 - 0.2 - Cloudy 10 - - - -
21/01:00pm 10.8 E 7 10 1014.9 - 0.2 - Cloudy 10 - - - -
21/12:30pm 10.7 ENE 7 9 1015.2 - 0.2 - Partly cloudy 10 - - - -
21/12:00pm 10.6 ESE 5 8 1015.6 - 0.2 - Cloudy 10 - - - -
21/11:30am 9.6 ENE 6 8 1015.9 - 0.2 - Partly cloudy 10 - - - -
21/11:00am 10.0 ENE 5 8 1016.1 - 0.2 - - 10 - - - -
21/10:30am 9.1 SE 2 5 1016.2 - 0.2 - Partly cloudy 10 - - - -
21/10:00am 7.9 WSW 3 4 1016.5 - 0.2 - Partly cloudy 10 - - - -
21/09:30am 6.4 SSW 5 6 1016.8 - 0.2 - Cloudy 10 - - - -
21/09:00am 5.5 SW 3 5 1016.7 - 0.2 - Cloudy 10 - - - -
21/08:30am 4.7 WNW 5 6 1016.9 - 0.2 - Partly cloudy 10 - - - -
21/08:00am 4.1 WNW 5 6 1016.8 - 0.2 - Partly cloudy 10 - - - -
21/07:30am 3.5 W 5 5 1016.7 - 0.2 - Partly cloudy 10 - - - -
21/07:00am 3.4 WNW 5 6 1016.6 - 0.2 - Partly cloudy 10 - - - -
21/06:30am 3.0 WNW 4 5 1016.3 - 0.2 - Partly cloudy 10 - - - -
21/06:00am 2.4 WNW 6 7 1016.2 - 0.2 - Cloudy 9 - - - -
21/05:30am 2.6 WSW 3 4 1016.0 - 0.2 - Partly cloudy 10 - - - -
21/05:00am 2.9 W 5 7 1016.2 - 0.2 - Cloudy 10 - - - -
21/04:30am 3.4 WNW 3 5 1016.3 - 0.2 - Cloudy 10 - - - -
21/04:00am 3.3 NW 5 7 1016.4 - 0.2 - Partly cloudy 10 - - - -
21/03:30am 3.0 W 5 6 1016.6 - 0.2 - Cloudy 10 - - - -
21/03:00am 2.9 W 7 9 1017.0 - 0.2 - Mostly cloudy 10 - - - -
21/02:30am 3.0 WNW 6 7 1017.4 - 0.2 - Partly cloudy 10 - - - -
21/02:00am 2.3 W 6 7 1017.6 - 0.2 - Cloudy 10 - - - -
21/01:30am 2.3 W 5 6 1017.9 - 0.2 - Cloudy 10 - - - -
21/01:00am 1.2 W 5 6 1018.0 - 0.2 - Cloudy 10 - - - -
21/12:30am 0.2 W 5 6 1018.1 - 0.2 - Partly cloudy 10 - - - -
21/12:00am 1.4 W 6 6 1018.1 - 0.2 - Mostly clear 10 - - - -
 
Date/Time
EST
Temp
°C
Wind Pressure Rain since
9am
mm
Weather Cloud Vis
km
Sea
Height
m
Swell
Dir  Spd
kts
Gust
kts
hPa Trend Height
m
Period
s
Dir
20/11:30pm 1.6 WNW 6 7 1018.3 - 0.2 - Partly cloudy 10 - - - -
20/11:00pm 2.6 W 3 4 1018.4 - 0.2 - Partly cloudy 8 - - - -
20/10:30pm 1.6 SW 5 6 1018.8 - 0.2 - Partly cloudy 10 - - - -
20/10:00pm 1.0 W 7 8 1019.1 - 0.2 - - 10 - - - -
20/09:30pm 1.6 WSW 5 5 1019.0 - 0.2 - - 10 - - - -
20/09:00pm 2.5 WSW 5 6 1019.2 - 0.2 - - 10 - - - -
20/08:30pm 2.7 W 5 5 1019.2 - 0.2 - Partly cloudy 10 - - - -
20/08:00pm 4.6 WNW 7 8 1019.2 - 0.2 - - 10 - - - -
20/07:30pm 5.0 WNW 7 7 1019.2 - 0.2 - - 10 - - - -
20/07:00pm 4.9 W 6 7 1019.2 - 0.2 - Partly cloudy 10 - - - -
20/06:30pm 4.3 SW 5 7 1019.0 - 0.2 - Partly cloudy 10 - - - -
20/06:00pm 7.2 NW 4 5 1018.6 - 0.2 - - 10 - - - -
20/05:30pm 9.2 NNW 6 8 1018.3 - 0.2 - - 10 - - - -
20/05:00pm 9.6 NW 9 11 1018.6 - 0.2 - - 10 - - - -
20/04:30pm 10.1 NW 9 13 1018.8 - 0.2 - Partly cloudy 10 - - - -
20/04:00pm 10.4 NNW 6 8 1019.2 - 0.2 - Partly cloudy 10 - - - -
20/03:30pm 10.8 NNW 7 11 1019.4 - 0.2 - Partly cloudy 10 - - - -
20/03:00pm 10.9 NNW 10 15 1019.4 - 0.2 - Cloudy 10 - - - -
20/02:30pm 12.2 W 9 14 1019.6 - 0.2 - Partly cloudy 10 - - - -
20/02:00pm 11.9 W 8 11 1020.0 - 0.2 - Partly cloudy 10 - - - -
20/01:30pm 11.6 NW 7 10 1020.4 - 0.2 - Partly cloudy 10 - - - -
20/01:00pm 11.5 WSW 8 10 1020.8 - 0.2 - Partly cloudy 10 - - - -
20/12:30pm 12.4 W 6 9 1021.3 - 0.2 - Partly cloudy 10 - - - -
20/12:00pm 12.3 WNW 8 11 1022.0 - 0.0 - - 10 - - - -
20/11:30am 10.8 W 8 11 1022.9 - 0.0 - Partly cloudy 10 - - - -
20/11:00am 11.2 W 7 10 1023.4 - 0.0 - - 10 - - - -
20/10:30am 9.6 WNW 6 9 1023.8 - 0.0 - - 10 - - - -
20/10:00am 8.6 NW 4 6 1024.1 - 0.0 - - 10 - - - -
20/09:30am 4.6 W 5 6 1024.4 - 0.0 - Partly cloudy 10 - - - -
20/09:00am 3.4 WNW 7 9 1024.6 - 0.0 - Mostly cloudy 10 - - - -
20/08:30am 2.4 WNW 6 8 1024.7 - 0.0 - Partly cloudy 10 - - - -
20/08:00am 0.7 WNW 7 8 1024.7 - 0.0 - Partly cloudy 10 - - - -
20/07:30am -0.6 WNW 6 7 1024.6 - 0.0 - - 10 - - - -
20/07:00am -1.5 WNW 5 6 1024.3 - 0.0 - - 10 - - - -
20/06:30am -1.3 W 5 7 1024.3 - 0.0 - Partly cloudy 10 - - - -
20/06:00am -1.3 W 7 7 1024.2 - 0.0 - - 10 - - - -
20/05:30am -0.9 W 5 8 1024.3 - 0.0 - - 10 - - - -
20/05:00am -0.9 WNW 6 7 1024.4 - 0.0 - - 10 - - - -
20/04:30am -0.6 WNW 5 6 1024.4 - 0.0 - - 10 - - - -
20/04:00am -0.5 WNW 5 7 1024.5 - 0.0 - - 10 - - - -
20/03:30am -0.9 WNW 7 8 1024.6 - 0.0 - - 10 - - - -
20/03:00am -0.8 W 4 5 1024.6 - 0.0 - - 10 - - - -
20/02:30am -0.7 WSW 5 8 1024.7 - 0.0 - - 10 - - - -
20/02:00am -0.5 WNW 6 7 1025.0 - 0.0 - - 10 - - - -
20/01:30am 0.3 WSW 4 5 1025.0 - 0.0 - - 10 - - - -
20/01:00am 0.5 W 4 5 1025.3 - 0.0 - - 10 - - - -
20/12:30am 1.4 W 1 4 1025.5 - 0.0 - - 10 - - - -
20/12:00am 0.1 W 6 8 1025.5 - 0.0 - - 10 - - - -
 
Date/Time
EST
Temp
°C
Wind Pressure Rain since
9am
mm
Weather Cloud Vis
km
Sea
Height
m
Swell
Dir  Spd
kts
Gust
kts
hPa Trend Height
m
Period
s
Dir
19/11:30pm 1.0 W 3 3 1025.4 - 0.0 - - 10 - - - -
19/11:00pm 1.9 WSW 3 4 1025.5 - 0.0 - - 10 - - - -
19/10:30pm 0.8 SW 4 5 1025.5 - 0.0 - - 10 - - - -
19/10:00pm 1.7 WSW 4 5 1025.6 - 0.0 - - 10 - - - -
19/09:30pm 1.3 WSW 5 5 1025.5 - 0.0 - - 10 - - - -
19/09:00pm 1.3 SW 5 5 1025.4 - 0.0 - - 10 - - - -
19/08:30pm 1.1 WSW 5 6 1025.4 - 0.0 - - 10 - - - -
19/08:00pm 2.4 WSW 5 5 1025.4 - 0.0 - - 10 - - - -
19/07:30pm 2.4 WSW 5 7 1025.5 - 0.0 - - 10 - - - -
19/07:00pm 2.3 W 6 7 1025.5 - 0.0 - - 10 - - - -
19/06:30pm 4.1 WSW 5 6 1025.3 - 0.0 - - 10 - - - -
19/06:00pm 6.2 WSW 7 9 1025.3 - 0.0 - - 10 - - - -
19/05:30pm 7.7 WSW 9 13 1025.1 - 0.0 - Partly cloudy 10 - - - -
19/05:00pm 8.9 SSW 10 16 1024.6 - 0.0 - Partly cloudy 10 - - - -
19/04:30pm 9.9 SW 10 13 1024.3 - 0.0 - - 10 - - - -
19/04:00pm 9.7 SSW 9 15 1024.0 - 0.0 - Partly cloudy 10 - - - -
19/03:30pm 9.9 SW 12 17 1023.9 - 0.0 - Partly cloudy 10 - - - -
19/03:00pm 11.7 SW 10 15 1023.7 - 0.0 - Cloudy 10 - - - -
19/02:30pm 11.0 WSW 12 20 1023.8 - 0.0 - Partly cloudy 10 - - - -
19/02:00pm 11.2 SW 12 15 1023.6 - 0.0 - Partly cloudy 10 - - - -
19/01:30pm 10.8 SW 9 14 1023.6 - 0.0 - Cloudy 10 - - - -
19/01:00pm 10.5 SW 10 14 1023.8 - 0.0 - - 10 - - - -
19/12:30pm 10.8 SW 9 13 1023.9 - 0.0 - Partly cloudy 10 - - - -
19/12:00pm 11.2 SW 11 14 1024.0 - 0.0 - Partly cloudy 10 - - - -
19/11:30am 10.6 SW 9 14 1024.5 - 0.0 - Partly cloudy 10 - - - -
19/11:00am 9.0 W 5 7 1024.6 - 0.0 - - 10 - - - -
19/10:30am 8.3 NW 6 9 1024.8 - 0.0 - - 10 - - - -
19/10:00am 7.3 WNW 7 10 1024.8 - 0.0 - - 10 - - - -
19/09:30am 5.7 W 6 7 1024.8 - 0.0 - - 10 - - - -
19/09:00am 3.5 W 6 7 1024.7 - 0.2 Recent precip. - 10 - - - -
19/08:30am 1.3 WNW 7 8 1024.5 - 0.2 - - 10 - - - -
19/08:00am -0.1 WNW 7 8 1024.1 - 0.0 - - 10 - - - -
19/07:30am -1.1 WNW 7 8 1023.6 - 0.0 - - 10 - - - -
19/07:00am -1.9 WSW 5 7 1023.1 - 0.0 - - 10 - - - -
19/06:30am -2.3 WNW 7 8 1022.6 - 0.0 - - 10 - - - -
19/06:00am -1.6 WNW 7 9 1022.1 - 0.0 - - 10 - - - -
19/05:30am -1.8 WSW 5 7 1021.9 - 0.0 - - 10 - - - -
19/05:00am -2.2 WSW 6 7 1021.3 - 0.0 - - 10 - - - -
19/04:30am -1.9 W 6 6 1021.1 - 0.0 - - 10 - - - -
19/04:00am -1.1 WSW 6 8 1020.7 - 0.0 - - 10 - - - -
19/03:30am -0.8 W 5 6 1020.6 - 0.0 - - 10 - - - -
19/03:00am -1.1 W 7 8 1020.4 - 0.0 - - 10 - - - -
19/02:30am -0.2 W 7 9 1019.9 - 0.0 - - 10 - - - -
19/02:00am -0.3 W 7 9 1019.7 - 0.0 - - 10 - - - -
19/01:30am -0.5 WSW 6 8 1019.3 - 0.0 - - 10 - - - -
19/01:00am -0.3 SSW 3 4 1019.0 - 0.0 - - 10 - - - -
19/12:30am -0.7 WSW 6 7 1018.6 - 0.0 - - 9 - - - -
19/12:00am 1.0 W 4 6 1018.2 - 0.0 - - 10 - - - -
 
Date/Time
EST
Temp
°C
Wind Pressure Rain since
9am
mm
Weather Cloud Vis
km
Sea
Height
m
Swell
Dir  Spd
kts
Gust
kts
hPa Trend Height
m
Period
s
Dir
18/11:30pm 1.4 WSW 6 8 1017.7 - 0.0 - - 10 - - - -
18/11:00pm 2.4 W 7 7 1017.6 - 0.0 - - 10 - - - -
18/10:30pm 3.8 WSW 7 9 1017.2 - 0.0 - - 10 - - - -

Other Formats:

Comma delimited format used in spreadsheet applications
http://www.bom.gov.au/fwo/IDV60701/IDV60701.95957.axf

JavaScript Object Notation format (JSON) in row-major order
http://www.bom.gov.au/fwo/IDV60701/IDV60701.95957.json